createdAt,value
2023-01-13T00:00:25.192Z,8.00
2023-01-13T00:02:27.623Z,8.00
2023-01-13T00:04:29.555Z,8.10
2023-01-13T00:06:31.235Z,8.10
2023-01-13T00:08:33.326Z,8.20
2023-01-13T00:10:35.976Z,8.20
2023-01-13T00:12:41.409Z,8.20
2023-01-13T00:14:43.053Z,8.20
2023-01-13T00:16:44.730Z,8.20
2023-01-13T00:18:47.335Z,8.30
2023-01-13T00:21:01.769Z,8.20
2023-01-13T00:23:04.377Z,8.30
2023-01-13T00:25:06.663Z,8.20
2023-01-13T00:27:08.363Z,8.20
2023-01-13T00:29:10.029Z,8.20
2023-01-13T00:31:20.317Z,8.20
2023-01-13T00:33:22.305Z,8.20
2023-01-13T00:35:24.013Z,8.20
2023-01-13T00:37:26.260Z,8.20
2023-01-13T00:39:28.060Z,8.30
2023-01-13T00:41:49.667Z,8.20
2023-01-13T00:43:51.916Z,8.30
2023-01-13T00:45:54.436Z,8.30
2023-01-13T00:47:56.093Z,8.20
2023-01-13T00:49:57.768Z,8.20
2023-01-13T00:51:59.619Z,8.20
2023-01-13T00:54:01.568Z,8.20
2023-01-13T00:56:09.937Z,8.20
2023-01-13T00:58:11.582Z,8.30
2023-01-13T01:00:13.583Z,8.20
2023-01-13T01:02:17.671Z,8.30
2023-01-13T01:04:19.485Z,8.30
2023-01-13T01:06:26.508Z,8.30
2023-01-13T01:08:28.320Z,8.30
2023-01-13T01:10:30.264Z,8.40
2023-01-13T01:12:31.998Z,8.40
2023-01-13T01:14:34.147Z,8.40
2023-01-13T01:16:35.801Z,8.40
2023-01-13T01:18:39.890Z,8.40
2023-01-13T01:20:41.588Z,8.40
2023-01-13T01:22:43.196Z,8.40
2023-01-13T01:24:44.821Z,8.40
2023-01-13T01:26:46.451Z,8.40
2023-01-13T01:28:48.210Z,8.40
2023-01-13T01:30:51.426Z,8.40
2023-01-13T01:32:53.413Z,8.40
2023-01-13T01:34:55.169Z,8.40
2023-01-13T01:36:57.122Z,8.40
2023-01-13T01:38:59.544Z,8.40
2023-01-13T01:41:01.541Z,8.50
2023-01-13T01:43:22.109Z,8.50
2023-01-13T01:45:24.980Z,8.50
2023-01-13T01:47:29.167Z,8.50
2023-01-13T01:49:34.557Z,8.50
2023-01-13T01:51:42.157Z,8.50
2023-01-13T01:53:43.958Z,8.50
2023-01-13T01:55:45.894Z,8.50
2023-01-13T01:57:58.561Z,8.50
2023-01-13T02:02:16.957Z,8.40
2023-01-13T02:04:27.953Z,8.40
2023-01-13T02:06:30.377Z,8.30
2023-01-13T02:08:32.598Z,8.30
2023-01-13T02:10:34.381Z,8.30
2023-01-13T02:12:37.110Z,8.30
2023-01-13T02:14:41.117Z,8.30
2023-01-13T02:17:07.861Z,8.40
2023-01-13T02:19:38.321Z,8.50
2023-01-13T02:22:12.181Z,8.50
2023-01-13T02:24:56.814Z,8.50
2023-01-13T02:27:13.492Z,8.50
2023-01-13T02:30:21.314Z,8.50
2023-01-13T02:32:34.244Z,8.50
2023-01-13T02:34:40.405Z,8.50
2023-01-13T02:37:03.742Z,8.50
2023-01-13T02:39:35.393Z,8.50
2023-01-13T02:42:05.055Z,8.50
2023-01-13T02:44:08.820Z,8.50
2023-01-13T02:46:34.766Z,8.50
2023-01-13T02:48:38.258Z,8.50
2023-01-13T02:50:44.914Z,8.50
2023-01-13T02:53:00.589Z,8.50
2023-01-13T02:55:13.871Z,8.50
2023-01-13T02:57:18.396Z,8.40
2023-01-13T02:59:22.137Z,8.40
2023-01-13T03:01:25.067Z,8.40
2023-01-13T03:03:26.919Z,8.40
2023-01-13T03:05:30.533Z,8.40
2023-01-13T03:07:48.032Z,8.40
2023-01-13T03:10:11.212Z,8.40
2023-01-13T03:12:33.473Z,8.40
2023-01-13T03:14:46.217Z,8.40
2023-01-13T03:17:09.787Z,8.40
2023-01-13T03:19:17.491Z,8.40
2023-01-13T03:21:26.023Z,8.40
2023-01-13T03:23:37.387Z,8.40
2023-01-13T03:25:50.924Z,8.40
2023-01-13T03:28:01.833Z,8.40
2023-01-13T03:30:15.740Z,8.30
2023-01-13T03:32:24.623Z,8.30
2023-01-13T03:34:32.886Z,8.30
2023-01-13T03:36:36.935Z,8.40
2023-01-13T03:38:43.517Z,8.40
2023-01-13T03:40:50.161Z,8.40
2023-01-13T03:43:18.817Z,8.30
2023-01-13T03:45:20.770Z,8.30
2023-01-13T03:47:36.797Z,8.30
2023-01-13T03:49:48.322Z,8.30
2023-01-13T03:51:56.269Z,8.30
2023-01-13T03:54:04.798Z,8.30
2023-01-13T03:56:20.622Z,8.30
2023-01-13T03:58:30.441Z,8.30
2023-01-13T04:00:37.458Z,8.30
2023-01-13T04:02:54.050Z,8.30
2023-01-13T04:05:02.905Z,8.30
2023-01-13T04:07:15.887Z,8.30
2023-01-13T04:09:29.621Z,8.20
2023-01-13T04:11:44.883Z,8.10
2023-01-13T04:13:49.547Z,8.10
2023-01-13T04:15:52.282Z,8.10
2023-01-13T04:17:54.357Z,8.10
2023-01-13T04:19:56.000Z,8.10
2023-01-13T04:21:57.975Z,8.00
2023-01-13T04:23:59.670Z,8.00
2023-01-13T04:26:01.358Z,7.90
2023-01-13T04:28:03.671Z,8.00
2023-01-13T04:30:06.016Z,7.90
2023-01-13T04:32:07.662Z,8.00
2023-01-13T04:34:10.980Z,8.00
2023-01-13T04:36:12.939Z,8.00
2023-01-13T04:38:17.167Z,8.10
2023-01-13T04:40:19.037Z,8.10
2023-01-13T04:42:20.709Z,8.20
2023-01-13T04:44:22.454Z,8.20
2023-01-13T04:46:24.127Z,8.20
2023-01-13T04:48:25.901Z,8.30
2023-01-13T04:50:28.270Z,8.30
2023-01-13T04:52:29.933Z,8.30
2023-01-13T04:54:31.620Z,8.30
2023-01-13T04:56:33.375Z,8.30
2023-01-13T04:58:35.098Z,8.30
2023-01-13T05:00:37.653Z,8.30
2023-01-13T05:02:39.787Z,8.30
2023-01-13T05:04:41.698Z,8.30
2023-01-13T05:06:43.473Z,8.30
2023-01-13T05:08:45.167Z,8.30
2023-01-13T05:10:46.912Z,8.40
2023-01-13T05:13:07.327Z,8.30
2023-01-13T05:15:31.748Z,8.40
2023-01-13T05:17:33.767Z,8.40
2023-01-13T05:19:39.117Z,8.50
2023-01-13T05:21:59.674Z,8.50
2023-01-13T05:24:19.892Z,8.50
2023-01-13T05:26:23.471Z,8.50
2023-01-13T05:28:25.245Z,8.50
2023-01-13T05:30:33.633Z,8.50
2023-01-13T05:32:35.544Z,8.50
2023-01-13T05:34:37.258Z,8.50
2023-01-13T05:36:38.930Z,8.50
2023-01-13T05:38:40.661Z,8.60
2023-01-13T05:41:01.498Z,8.60
2023-01-13T05:43:20.570Z,8.60
2023-01-13T05:45:22.346Z,8.50
2023-01-13T05:47:23.983Z,8.60
2023-01-13T05:49:25.728Z,8.60
2023-01-13T05:51:27.547Z,8.60
2023-01-13T05:53:29.989Z,8.60
2023-01-13T05:55:31.870Z,8.60
2023-01-13T05:57:33.684Z,8.50
2023-01-13T05:59:35.479Z,8.50
2023-01-13T06:01:37.417Z,8.60
2023-01-13T06:03:39.272Z,8.60
2023-01-13T06:05:41.310Z,8.60
2023-01-13T06:07:43.058Z,8.60
2023-01-13T06:09:45.080Z,8.60
2023-01-13T06:11:46.721Z,8.60
2023-01-13T06:13:48.523Z,8.60
2023-01-13T06:15:50.275Z,8.60
2023-01-13T06:17:52.727Z,8.60
2023-01-13T06:19:54.756Z,8.60
2023-01-13T06:21:57.766Z,8.60
2023-01-13T06:23:59.540Z,8.60
2023-01-13T06:26:19.081Z,8.50
2023-01-13T06:28:20.803Z,8.50
2023-01-13T06:30:22.926Z,8.50
2023-01-13T06:32:32.531Z,8.50
2023-01-13T06:34:35.642Z,8.50
2023-01-13T06:36:41.508Z,8.50
2023-01-13T06:38:47.697Z,8.50
2023-01-13T06:40:49.665Z,8.50
2023-01-13T06:43:15.080Z,8.40
2023-01-13T06:45:18.305Z,8.40
2023-01-13T06:47:22.351Z,8.50
2023-01-13T06:49:24.242Z,8.50
2023-01-13T06:51:26.068Z,8.50
2023-01-13T06:53:27.921Z,8.40
2023-01-13T06:55:29.647Z,8.50
2023-01-13T06:57:31.473Z,8.40
2023-01-13T06:59:35.282Z,8.40
2023-01-13T07:01:38.079Z,8.40
2023-01-13T07:03:40.803Z,8.40
2023-01-13T07:05:43.971Z,8.40
2023-01-13T07:07:45.755Z,8.40
2023-01-13T07:09:47.427Z,8.40
2023-01-13T07:11:49.341Z,8.40
2023-01-13T07:14:09.442Z,8.40
2023-01-13T07:16:11.233Z,8.40
2023-01-13T07:18:13.062Z,8.40
2023-01-13T07:20:15.833Z,8.40
2023-01-13T07:22:17.692Z,8.40
2023-01-13T07:24:20.141Z,8.30
2023-01-13T07:26:22.013Z,8.40
2023-01-13T07:28:24.709Z,8.40
2023-01-13T07:30:26.383Z,8.40
2023-01-13T07:32:28.126Z,8.40
2023-01-13T07:34:29.831Z,8.40
2023-01-13T07:36:31.618Z,8.40
2023-01-13T07:38:34.234Z,8.40
2023-01-13T07:40:36.238Z,8.40
2023-01-13T07:42:57.406Z,8.40
2023-01-13T07:44:59.287Z,8.40
2023-01-13T07:47:00.983Z,8.40
2023-01-13T07:49:03.350Z,8.50
2023-01-13T07:51:07.652Z,8.40
2023-01-13T07:53:09.350Z,8.50
2023-01-13T07:55:11.121Z,8.40
2023-01-13T07:57:12.805Z,8.40
2023-01-13T07:59:14.457Z,8.40
2023-01-13T08:01:17.082Z,8.30
2023-01-13T08:03:18.933Z,8.20
2023-01-13T08:05:20.657Z,8.20
2023-01-13T08:07:22.327Z,8.30
2023-01-13T08:09:24.051Z,8.30
2023-01-13T08:11:25.756Z,8.30
2023-01-13T08:13:27.999Z,8.40
2023-01-13T08:15:31.878Z,8.50
2023-01-13T08:17:33.566Z,8.50
2023-01-13T08:19:35.328Z,8.60
2023-01-13T08:21:37.081Z,8.60
2023-01-13T08:23:39.264Z,8.70
2023-01-13T08:25:41.064Z,8.70
2023-01-13T08:27:42.783Z,8.60
2023-01-13T08:29:44.508Z,8.60
2023-01-13T08:31:46.200Z,8.50
2023-01-13T08:33:48.048Z,8.50
2023-01-13T08:35:52.866Z,8.60
2023-01-13T08:37:54.619Z,8.70
2023-01-13T08:39:56.293Z,8.90
2023-01-13T08:41:58.936Z,9.00
2023-01-13T08:44:00.639Z,9.00
2023-01-13T08:46:04.619Z,8.90
2023-01-13T08:48:06.868Z,8.80
2023-01-13T08:50:09.501Z,8.70
2023-01-13T08:52:11.432Z,8.50
2023-01-13T08:54:14.015Z,8.30
2023-01-13T08:56:17.035Z,8.20
2023-01-13T08:58:18.788Z,8.10
2023-01-13T09:00:20.757Z,7.90
2023-01-13T09:02:24.306Z,7.70
2023-01-13T09:04:28.363Z,7.60
2023-01-13T09:06:30.134Z,7.50
2023-01-13T09:08:32.038Z,7.40
2023-01-13T09:10:35.547Z,7.40
2023-01-13T09:12:56.019Z,7.30
2023-01-13T09:14:58.166Z,7.40
2023-01-13T09:17:00.137Z,7.40
2023-01-13T09:19:01.850Z,7.40
2023-01-13T09:21:03.774Z,7.40
2023-01-13T09:23:08.853Z,7.40
2023-01-13T09:25:12.701Z,7.40
2023-01-13T09:27:15.523Z,7.30
2023-01-13T09:29:17.930Z,7.10
2023-01-13T09:31:19.770Z,6.90
2023-01-13T09:33:40.032Z,6.80
2023-01-13T09:35:41.897Z,6.70
2023-01-13T09:37:43.625Z,6.60
2023-01-13T09:39:45.632Z,6.50
2023-01-13T09:42:12.363Z,6.40
2023-01-13T09:44:25.098Z,6.40
2023-01-13T09:46:43.974Z,6.30
2023-01-13T09:48:54.721Z,6.30
2023-01-13T09:51:24.432Z,6.40
2023-01-13T09:53:41.613Z,6.40
2023-01-13T09:55:43.468Z,6.50
2023-01-13T09:57:46.448Z,6.60
2023-01-13T09:59:48.645Z,6.60
2023-01-13T10:02:12.034Z,6.70
2023-01-13T10:04:15.893Z,6.80
2023-01-13T10:06:19.843Z,6.80
2023-01-13T10:08:35.140Z,7.00
2023-01-13T10:10:51.987Z,6.90
2023-01-13T10:13:12.827Z,6.90
2023-01-13T10:15:23.202Z,6.80
2023-01-13T10:17:30.781Z,6.70
2023-01-13T10:19:40.587Z,6.70
2023-01-13T10:22:15.403Z,6.70
2023-01-13T10:24:29.299Z,6.60
2023-01-13T10:26:37.305Z,6.60
2023-01-13T10:28:39.044Z,6.50
2023-01-13T10:30:44.359Z,6.50
2023-01-13T10:33:11.282Z,6.50
2023-01-13T10:35:12.979Z,6.40
2023-01-13T10:37:25.987Z,6.40
2023-01-13T10:39:28.295Z,6.30
2023-01-13T10:41:30.477Z,6.40
2023-01-13T10:43:32.923Z,6.30
2023-01-13T10:45:34.606Z,6.30
2023-01-13T10:47:37.177Z,6.30
2023-01-13T10:49:39.113Z,6.30
2023-01-13T10:51:40.799Z,6.40
2023-01-13T10:54:12.868Z,6.40
2023-01-13T10:56:18.573Z,6.50
2023-01-13T10:58:21.405Z,6.70
2023-01-13T11:00:34.967Z,6.70
2023-01-13T11:02:37.401Z,6.70
2023-01-13T11:04:42.730Z,6.70
2023-01-13T11:06:47.342Z,6.60
2023-01-13T11:08:51.569Z,6.60
2023-01-13T11:10:56.229Z,6.50
2023-01-13T11:13:18.338Z,6.30
2023-01-13T11:15:23.718Z,6.20
2023-01-13T11:17:45.566Z,6.20
2023-01-13T11:20:19.173Z,6.10
2023-01-13T11:22:27.442Z,6.00
2023-01-13T11:24:40.362Z,6.00
2023-01-13T11:27:04.345Z,5.90
2023-01-13T11:29:16.488Z,5.90
2023-01-13T11:31:30.608Z,5.80
2023-01-13T11:33:45.230Z,5.80
2023-01-13T11:36:12.297Z,5.80
2023-01-13T11:38:28.767Z,5.80
2023-01-13T11:40:40.414Z,5.90
2023-01-13T11:42:49.251Z,5.90
2023-01-13T11:45:01.923Z,5.90
2023-01-13T11:47:03.794Z,5.80
2023-01-13T11:49:05.655Z,5.70
2023-01-13T11:51:36.743Z,5.70
2023-01-13T11:53:41.258Z,5.70
2023-01-13T11:56:24.401Z,5.70
2023-01-13T11:58:56.576Z,5.60
2023-01-13T12:01:23.076Z,5.60
2023-01-13T12:03:40.143Z,5.70
2023-01-13T12:05:59.717Z,5.70
2023-01-13T12:08:20.179Z,5.70
2023-01-13T12:10:43.225Z,5.80
2023-01-13T12:12:44.859Z,5.90
2023-01-13T12:15:20.397Z,5.90
2023-01-13T12:17:42.325Z,6.00
2023-01-13T12:19:49.421Z,6.30
2023-01-13T12:22:09.775Z,6.50
2023-01-13T12:24:24.991Z,6.80
2023-01-13T12:26:31.930Z,6.80
2023-01-13T12:28:59.024Z,6.70
2023-01-13T12:31:02.657Z,6.50
2023-01-13T12:33:18.704Z,6.30
2023-01-13T12:35:37.718Z,6.30
2023-01-13T12:37:52.356Z,6.20
2023-01-13T12:40:00.077Z,6.30
2023-01-13T12:42:34.952Z,6.40
2023-01-13T12:44:36.790Z,6.70
2023-01-13T12:46:58.711Z,6.90
2023-01-13T12:49:04.556Z,7.00
2023-01-13T12:51:28.070Z,7.20
2023-01-13T12:53:36.254Z,8.00
2023-01-13T12:55:38.043Z,8.30
2023-01-13T12:57:40.265Z,8.00
2023-01-13T12:59:48.573Z,7.70
2023-01-13T13:02:12.041Z,7.40
2023-01-13T13:04:19.584Z,7.20
2023-01-13T13:06:24.065Z,7.00
2023-01-13T13:08:40.922Z,7.20
2023-01-13T13:11:28.664Z,7.20
2023-01-13T13:13:48.724Z,7.10
2023-01-13T13:15:51.644Z,7.10
2023-01-13T13:17:59.383Z,7.40
2023-01-13T13:20:01.857Z,7.70
2023-01-13T13:22:12.474Z,7.90
2023-01-13T13:24:14.719Z,8.30
2023-01-13T13:26:20.312Z,8.50
2023-01-13T13:28:23.815Z,8.40
2023-01-13T13:30:34.167Z,8.60
2023-01-13T13:32:49.481Z,8.80
2023-01-13T13:34:57.023Z,9.20
2023-01-13T13:37:20.611Z,9.00
2023-01-13T13:39:44.162Z,9.00
2023-01-13T13:42:06.878Z,9.20
2023-01-13T13:44:44.703Z,9.50
2023-01-13T13:46:47.477Z,9.50
2023-01-13T13:48:54.457Z,9.20
2023-01-13T13:51:02.401Z,8.90
2023-01-13T13:53:08.344Z,8.60
2023-01-13T13:55:18.901Z,8.40
2023-01-13T13:57:30.127Z,8.10
2023-01-13T13:59:33.727Z,7.90
2023-01-13T14:01:38.356Z,7.90
2023-01-13T14:03:40.389Z,7.80
2023-01-13T14:06:12.571Z,7.80
2023-01-13T14:08:17.941Z,7.70
2023-01-13T14:10:34.353Z,7.70
2023-01-13T14:12:38.194Z,7.60
2023-01-13T14:14:43.838Z,7.50
2023-01-13T14:16:46.447Z,7.50
2023-01-13T14:18:48.687Z,7.40
2023-01-13T14:21:22.203Z,7.30
2023-01-13T14:23:27.792Z,7.10
2023-01-13T14:25:46.477Z,7.00
2023-01-13T14:27:48.223Z,6.90
2023-01-13T14:29:53.662Z,6.80
2023-01-13T14:31:55.713Z,6.70
2023-01-13T14:34:01.169Z,6.40
2023-01-13T14:36:14.897Z,6.10
2023-01-13T14:38:16.679Z,5.90
2023-01-13T14:40:36.158Z,5.70
2023-01-13T14:42:37.837Z,5.60
2023-01-13T14:44:47.506Z,5.50
2023-01-13T14:46:49.750Z,5.40
2023-01-13T14:49:01.104Z,5.30
2023-01-13T14:51:10.715Z,5.30
2023-01-13T14:53:51.235Z,5.30
2023-01-13T14:55:53.217Z,5.50
2023-01-13T14:58:20.543Z,5.70
2023-01-13T15:00:25.323Z,5.90
2023-01-13T15:02:30.171Z,5.90
2023-01-13T15:04:37.348Z,5.70
2023-01-13T15:06:39.167Z,5.40
2023-01-13T15:08:41.035Z,5.20
2023-01-13T15:10:49.162Z,5.10
2023-01-13T15:12:53.783Z,4.90
2023-01-13T15:14:56.782Z,4.90
2023-01-13T15:16:58.529Z,4.90
2023-01-13T15:19:00.263Z,4.90
2023-01-13T15:21:02.159Z,4.90
2023-01-13T15:23:04.017Z,4.90
2023-01-13T15:25:06.480Z,4.90
2023-01-13T15:27:17.876Z,4.90
2023-01-13T15:29:20.126Z,4.90
2023-01-13T15:31:23.368Z,4.90
2023-01-13T15:33:25.087Z,4.80
2023-01-13T15:35:29.619Z,4.80
2023-01-13T15:37:31.301Z,4.80
2023-01-13T15:39:33.066Z,4.80
2023-01-13T15:41:53.517Z,4.90
2023-01-13T15:44:13.765Z,4.90
2023-01-13T15:46:35.787Z,5.00
2023-01-13T15:48:37.704Z,5.10
2023-01-13T15:50:40.234Z,5.10
2023-01-13T15:52:42.174Z,5.00
2023-01-13T15:54:43.833Z,4.90
2023-01-13T15:56:46.589Z,4.80
2023-01-13T15:58:48.317Z,4.70
2023-01-13T16:00:50.093Z,4.60
2023-01-13T16:02:51.824Z,4.60
2023-01-13T16:04:56.735Z,4.50
2023-01-13T16:06:59.614Z,4.40
2023-01-13T16:09:03.542Z,4.30
2023-01-13T16:11:05.385Z,4.30
2023-01-13T16:13:07.205Z,4.30
2023-01-13T16:15:13.087Z,4.30
2023-01-13T16:17:20.570Z,4.40
2023-01-13T16:19:22.297Z,4.50
2023-01-13T16:21:24.558Z,4.60
2023-01-13T16:23:26.187Z,4.60
2023-01-13T16:25:28.063Z,4.70
2023-01-13T16:27:29.791Z,4.70
2023-01-13T16:29:31.576Z,4.70
2023-01-13T16:31:34.466Z,4.70
2023-01-13T16:33:36.088Z,4.60
2023-01-13T16:35:37.757Z,4.60
2023-01-13T16:38:00.032Z,4.60
2023-01-13T16:40:02.650Z,4.50
2023-01-13T16:42:04.645Z,4.50
2023-01-13T16:44:06.330Z,4.40
2023-01-13T16:46:23.220Z,4.40
2023-01-13T16:48:24.879Z,4.40
2023-01-13T16:50:44.496Z,4.50
2023-01-13T16:52:46.214Z,4.50
2023-01-13T16:54:47.925Z,4.40
2023-01-13T16:56:49.556Z,4.40
2023-01-13T16:58:53.606Z,4.30
2023-01-13T17:00:55.450Z,4.20
2023-01-13T17:03:02.047Z,4.10
2023-01-13T17:05:04.202Z,4.00
2023-01-13T17:07:08.141Z,3.90
2023-01-13T17:09:17.390Z,3.80
2023-01-13T17:11:20.137Z,3.80
2023-01-13T17:13:22.391Z,3.80
2023-01-13T17:15:24.130Z,3.80
2023-01-13T17:17:27.386Z,3.80
2023-01-13T17:19:29.193Z,3.80
2023-01-13T17:21:30.852Z,3.80
2023-01-13T17:23:33.366Z,3.90
2023-01-13T17:25:35.041Z,4.00
2023-01-13T17:27:36.763Z,4.10
2023-01-13T17:29:38.587Z,4.10
2023-01-13T17:31:40.523Z,4.10
2023-01-13T17:33:42.242Z,4.20
2023-01-13T17:35:44.067Z,4.20
2023-01-13T17:37:46.387Z,4.20
2023-01-13T17:39:48.584Z,4.30
2023-01-13T17:41:51.632Z,4.30
2023-01-13T17:43:53.930Z,4.40
2023-01-13T17:45:55.622Z,4.40
2023-01-13T17:48:01.029Z,4.50
2023-01-13T17:50:04.143Z,4.60
2023-01-13T17:52:07.118Z,4.60
2023-01-13T17:54:12.628Z,4.60
2023-01-13T17:56:16.786Z,4.60
2023-01-13T17:58:19.638Z,4.70
2023-01-13T18:00:21.776Z,4.70
2023-01-13T18:02:23.615Z,4.80
2023-01-13T18:04:30.998Z,4.80
2023-01-13T18:06:33.224Z,4.80
2023-01-13T18:08:35.060Z,4.90
2023-01-13T18:10:36.942Z,4.90
2023-01-13T18:12:38.630Z,4.90
2023-01-13T18:14:40.718Z,4.90
2023-01-13T18:16:42.881Z,4.90
2023-01-13T18:18:48.482Z,4.90
2023-01-13T18:21:09.470Z,4.90
2023-01-13T18:23:37.530Z,4.90
2023-01-13T18:25:58.185Z,4.90
2023-01-13T18:28:02.587Z,4.90
2023-01-13T18:30:05.394Z,4.90
2023-01-13T18:32:08.835Z,4.90
2023-01-13T18:34:10.849Z,4.90
2023-01-13T18:36:12.684Z,4.80
2023-01-13T18:38:32.580Z,4.80
2023-01-13T18:40:34.544Z,4.80
2023-01-13T18:42:53.599Z,4.80
2023-01-13T18:44:57.160Z,4.70
2023-01-13T18:46:58.792Z,4.70
2023-01-13T18:49:00.579Z,4.80
2023-01-13T18:51:02.321Z,4.80
2023-01-13T18:53:04.033Z,4.80
2023-01-13T18:55:05.961Z,4.90
2023-01-13T18:57:07.761Z,4.90
2023-01-13T18:59:09.499Z,4.90
2023-01-13T19:01:11.339Z,5.00
2023-01-13T19:03:13.344Z,5.00
2023-01-13T19:05:15.194Z,5.10
2023-01-13T19:07:24.120Z,5.10
2023-01-13T19:09:28.681Z,5.20
2023-01-13T19:11:30.542Z,5.20
2023-01-13T19:13:32.922Z,5.10
2023-01-13T19:15:36.886Z,5.20
2023-01-13T19:17:38.669Z,5.10
2023-01-13T19:19:43.717Z,5.10
2023-01-13T19:21:45.406Z,5.10
2023-01-13T19:23:47.182Z,5.10
2023-01-13T19:25:48.909Z,5.10
2023-01-13T19:27:50.609Z,5.00
2023-01-13T19:29:53.772Z,5.00
2023-01-13T19:31:55.586Z,5.00
2023-01-13T19:33:57.853Z,5.00
2023-01-13T19:36:01.068Z,4.90
2023-01-13T19:38:02.939Z,4.90
2023-01-13T19:40:09.164Z,4.90
2023-01-13T19:42:31.222Z,4.90
2023-01-13T19:44:51.618Z,4.80
2023-01-13T19:46:53.403Z,4.80
2023-01-13T19:48:55.075Z,4.70
2023-01-13T19:50:58.667Z,4.70
2023-01-13T19:53:00.521Z,4.70
2023-01-13T19:55:02.357Z,4.60
2023-01-13T19:57:04.449Z,4.60
2023-01-13T19:59:06.138Z,4.70
2023-01-13T20:01:10.249Z,4.70
2023-01-13T20:03:12.516Z,4.70
2023-01-13T20:05:18.112Z,4.60
2023-01-13T20:07:19.982Z,4.60
2023-01-13T20:09:21.652Z,4.60
2023-01-13T20:11:23.987Z,4.60
2023-01-13T20:13:25.778Z,4.60
2023-01-13T20:15:28.165Z,4.60
2023-01-13T20:17:30.816Z,4.50
2023-01-13T20:19:33.070Z,4.50
2023-01-13T20:21:34.734Z,4.50
2023-01-13T20:23:36.769Z,4.40
2023-01-13T20:25:42.563Z,4.40
2023-01-13T20:27:46.077Z,4.40
2023-01-13T20:29:48.061Z,4.40
2023-01-13T20:31:50.546Z,4.40
2023-01-13T20:33:52.510Z,4.40
2023-01-13T20:35:58.612Z,4.40
2023-01-13T20:38:00.411Z,4.40
2023-01-13T20:40:02.185Z,4.40
2023-01-13T20:42:22.586Z,4.30
2023-01-13T20:44:24.346Z,4.20
2023-01-13T20:46:26.260Z,4.00
2023-01-13T20:48:27.979Z,4.00
2023-01-13T20:50:29.707Z,3.90
2023-01-13T20:52:31.463Z,3.80
2023-01-13T20:54:33.222Z,3.70
2023-01-13T20:56:35.953Z,3.60
2023-01-13T20:58:39.234Z,3.60
2023-01-13T21:00:41.002Z,3.50
2023-01-13T21:02:43.896Z,3.50
2023-01-13T21:04:45.613Z,3.50
2023-01-13T21:06:48.229Z,3.50
2023-01-13T21:08:52.550Z,3.40
2023-01-13T21:11:05.262Z,3.30
2023-01-13T21:13:25.643Z,3.30
2023-01-13T21:15:27.977Z,3.20
2023-01-13T21:17:48.103Z,3.20
2023-01-13T21:19:50.362Z,3.10
2023-01-13T21:21:52.115Z,3.10
2023-01-13T21:23:54.132Z,3.10
2023-01-13T21:25:55.777Z,3.10
2023-01-13T21:28:08.710Z,3.10
2023-01-13T21:30:15.236Z,3.10
2023-01-13T21:32:16.915Z,3.10
2023-01-13T21:34:18.617Z,3.10
2023-01-13T21:36:20.536Z,3.20
2023-01-13T21:38:22.345Z,3.20
2023-01-13T21:40:24.377Z,3.30
2023-01-13T21:42:44.790Z,3.30
2023-01-13T21:45:05.022Z,3.30
2023-01-13T21:47:36.901Z,3.30
2023-01-13T21:49:44.099Z,3.30
2023-01-13T21:51:45.751Z,3.30
2023-01-13T21:53:47.409Z,3.30
2023-01-13T21:55:52.493Z,3.30
2023-01-13T21:57:57.529Z,3.30
2023-01-13T21:59:59.747Z,3.30
2023-01-13T22:02:24.603Z,3.30
2023-01-13T22:04:26.826Z,3.30
2023-01-13T22:06:29.560Z,3.40
2023-01-13T22:08:32.750Z,3.40
2023-01-13T22:10:34.827Z,3.40
2023-01-13T22:12:37.313Z,3.40
2023-01-13T22:14:39.010Z,3.40
2023-01-13T22:16:45.229Z,3.50
2023-01-13T22:18:47.403Z,3.50
2023-01-13T22:20:49.355Z,3.50
2023-01-13T22:22:51.114Z,3.60
2023-01-13T22:24:53.736Z,3.50
2023-01-13T22:26:55.346Z,3.60
2023-01-13T22:28:57.102Z,3.60
2023-01-13T22:30:58.941Z,3.60
2023-01-13T22:33:00.897Z,3.60
2023-01-13T22:35:03.374Z,3.70
2023-01-13T22:37:05.342Z,3.60
2023-01-13T22:39:07.020Z,3.60
2023-01-13T22:41:09.858Z,3.70
2023-01-13T22:43:11.627Z,3.70
2023-01-13T22:45:14.190Z,3.70
2023-01-13T22:47:15.918Z,3.60
2023-01-13T22:49:18.424Z,3.60
2023-01-13T22:51:20.057Z,3.60
2023-01-13T22:53:22.599Z,3.50
2023-01-13T22:55:24.278Z,3.50
2023-01-13T22:57:25.926Z,3.40
2023-01-13T22:59:27.760Z,3.40
2023-01-13T23:01:32.589Z,3.40
2023-01-13T23:03:34.336Z,3.40
2023-01-13T23:05:36.845Z,3.40
2023-01-13T23:07:38.553Z,3.30
2023-01-13T23:09:40.423Z,3.30
2023-01-13T23:11:42.502Z,3.30
2023-01-13T23:13:44.515Z,3.20
2023-01-13T23:15:46.333Z,3.10
2023-01-13T23:17:51.727Z,3.10
2023-01-13T23:19:53.405Z,3.20
2023-01-13T23:21:55.110Z,3.30
2023-01-13T23:23:58.755Z,3.30
2023-01-13T23:26:01.162Z,3.30
2023-01-13T23:28:03.068Z,3.30
2023-01-13T23:30:07.880Z,3.40
2023-01-13T23:32:09.571Z,3.40
2023-01-13T23:34:11.265Z,3.40
2023-01-13T23:36:24.456Z,3.50
2023-01-13T23:38:27.572Z,3.50
2023-01-13T23:40:29.275Z,3.50
2023-01-13T23:42:31.193Z,3.50
2023-01-13T23:44:33.089Z,3.50
2023-01-13T23:46:35.236Z,3.60
2023-01-13T23:48:37.274Z,3.60
2023-01-13T23:50:38.926Z,3.70
2023-01-13T23:52:40.620Z,3.70
2023-01-13T23:54:42.332Z,3.60
2023-01-13T23:56:44.188Z,3.60
2023-01-13T23:58:46.329Z,3.70
